Berlin, Michigan
Current Conditions -  °F | °C
As of 5:34 AM on Saturday 01 Nov 2014 (Local Time) from KD95 Reporting Station
Overcast Overcast  
Wind Chill: 23°   Ceiling: 3600
Heat Index: 33°   Visibility: 10mi
Dew Point: 26°   Wind: 13mph
Humidity: 75%   Direction: 360°N
Pressure: 30.22"   Gusts: 23mph
Location:  42.9384°N, 82.9255°W
Report Text: KD95 010934Z AUTO 36011G20KT 10SM OVC036 00/M04 A3022 RMK AO2 T00031036
Loading
Personal Weather Stations






























Interactive Weather Map
Tropical Storm Tracking
New forecast layout! Learn more

10-Day Weather Forecast

Advertisements
Track Severe Weather on mobile